Canterbury, NH (03224)

1:31 AM EDT on July 05, 2015 (GMT -0400)
Lower Baptist Hill Road | | Change Station
CLOSE
Current Station
Personal Weather Station
Location: Canterbury, NH
Elevation: 679 ft
Nearby Weather Stations

Elev 679 ft 43.35 °N, 71.51 °W | Updated 3 seconds ago

Mostly Cloudy
Mostly Cloudy
53.6 °F
Feels Like 53.6 °F
N
0.0
Wind Variable Wind from SW
Gusts 0.0 mph

Today
High -- | Low -- °F
--% Chance of Precip.
Yesterday
High -- | Low -- °F
Precip. -- in
5:11 AM 8:29 PM
Waning Gibbous, 87% visible
Pressure 29.99 in
Visibility 0.2 miles
Clouds
Dew Point 53 °F
Humidity 97%
Rainfall 0.00 in
Snow Depth Not available.
UV 0.0 out of 12
Pollen 2.40 out of 12
Air Quality Not available.
Flu Activity Not available.
METAR KCON 050451Z AUTO 00000KT 1/4SM FG VV002 12/12 A2999 RMK AO2 SLP155 T01220117 402110106

More Conditions Fewer Conditions

Pressure 29.99 in
Visibility 0.2 miles
Clouds
Dew Point 53 °F
Humidity 97%
Rainfall 0.00 in
Snow Depth Not available.
UV 0.0 out of 12
Pollen 2.40 out of 12
Air Quality Not available.
Flu Activity Not available.
METAR KCON 050451Z AUTO 00000KT 1/4SM FG VV002 12/12 A2999 RMK AO2 SLP155 T01220117 402110106

More Conditions Fewer Conditions

10-Day Weather Forecast

×

Almanac

Astronomy

Jul. 05, 2015 Rise Set
Actual Time
Civil Twilight
Nautical Twilight
Astronomical Twilight
Moon
Length of Visible Light
Length of Day
Tomorrow will be .
, % of the Moon is Illuminated

Today's Extremes

State Highs State Lows

Community

WunderPhotos

Upload Photos

1,835,203 photos uploaded!

WunderBlogs® & News

Nearby

Air Quality

  Air Quality AQ Index Pollutant
Not available.

Snow Depth

Station Depth Elevation

Earthquake Activity

City Distance Mag. Time & Date
Minimum magnitude displayed is 2.5.

Coastal Water Temperatures

Place Temperature

Stations

Nearby Weather Stations

Station Location Temp. Windchill Dew Point Humidity Wind Precip. Elev Updated Type